sensor_id;sensor_type;location;lat;lon;timestamp;P1;durP1;ratioP1;P2;durP2;ratioP2
239;SDS011;104;53.590;10.004;2022-08-25T00:01:52;14.53;;;11.60;;
239;SDS011;104;53.590;10.004;2022-08-25T00:04:20;17.60;;;12.07;;
239;SDS011;104;53.590;10.004;2022-08-25T00:06:48;19.50;;;12.40;;
239;SDS011;104;53.590;10.004;2022-08-25T00:09:19;18.13;;;13.00;;
239;SDS011;104;53.590;10.004;2022-08-25T00:11:48;15.10;;;12.30;;
239;SDS011;104;53.590;10.004;2022-08-25T00:14:18;17.70;;;12.70;;
239;SDS011;104;53.590;10.004;2022-08-25T00:16:46;16.80;;;12.47;;
239;SDS011;104;53.590;10.004;2022-08-25T00:19:14;14.80;;;12.23;;
239;SDS011;104;53.590;10.004;2022-08-25T00:21:44;15.30;;;12.47;;
239;SDS011;104;53.590;10.004;2022-08-25T00:24:12;19.47;;;13.30;;
239;SDS011;104;53.590;10.004;2022-08-25T00:26:44;17.13;;;12.57;;
239;SDS011;104;53.590;10.004;2022-08-25T00:29:13;14.80;;;12.23;;
239;SDS011;104;53.590;10.004;2022-08-25T00:31:40;16.90;;;12.67;;
239;SDS011;104;53.590;10.004;2022-08-25T00:34:09;16.80;;;12.63;;
239;SDS011;104;53.590;10.004;2022-08-25T00:36:40;17.37;;;13.43;;
239;SDS011;104;53.590;10.004;2022-08-25T00:39:08;17.80;;;12.67;;
239;SDS011;104;53.590;10.004;2022-08-25T00:41:37;15.20;;;12.17;;
239;SDS011;104;53.590;10.004;2022-08-25T00:44:07;16.63;;;12.40;;
239;SDS011;104;53.590;10.004;2022-08-25T00:46:37;16.80;;;12.30;;
239;SDS011;104;53.590;10.004;2022-08-25T00:49:06;19.53;;;13.20;;
239;SDS011;104;53.590;10.004;2022-08-25T00:51:39;18.00;;;13.27;;
239;SDS011;104;53.590;10.004;2022-08-25T00:54:13;17.37;;;13.20;;
239;SDS011;104;53.590;10.004;2022-08-25T00:56:44;17.80;;;13.47;;
239;SDS011;104;53.590;10.004;2022-08-25T00:59:13;18.43;;;13.37;;
239;SDS011;104;53.590;10.004;2022-08-25T01:01:41;19.70;;;12.87;;
239;SDS011;104;53.590;10.004;2022-08-25T01:04:08;17.10;;;13.00;;
239;SDS011;104;53.590;10.004;2022-08-25T01:06:36;17.40;;;13.13;;
239;SDS011;104;53.590;10.004;2022-08-25T01:09:07;19.90;;;14.03;;
239;SDS011;104;53.590;10.004;2022-08-25T01:11:34;16.03;;;13.37;;
239;SDS011;104;53.590;10.004;2022-08-25T01:14:02;18.03;;;13.70;;
239;SDS011;104;53.590;10.004;2022-08-25T01:16:33;20.30;;;14.03;;
239;SDS011;104;53.590;10.004;2022-08-25T01:19:01;19.67;;;13.47;;
239;SDS011;104;53.590;10.004;2022-08-25T01:21:31;19.13;;;14.40;;
239;SDS011;104;53.590;10.004;2022-08-25T01:24:08;20.10;;;14.33;;
239;SDS011;104;53.590;10.004;2022-08-25T01:26:41;18.53;;;13.30;;
239;SDS011;104;53.590;10.004;2022-08-25T01:29:10;28.10;;;13.90;;
239;SDS011;104;53.590;10.004;2022-08-25T01:31:52;18.20;;;13.40;;
239;SDS011;104;53.590;10.004;2022-08-25T01:34:22;17.20;;;13.43;;
239;SDS011;104;53.590;10.004;2022-08-25T01:36:54;18.53;;;14.00;;
239;SDS011;104;53.590;10.004;2022-08-25T01:39:22;18.97;;;13.70;;
239;SDS011;104;53.590;10.004;2022-08-25T01:42:08;19.37;;;14.53;;
239;SDS011;104;53.590;10.004;2022-08-25T01:44:45;18.70;;;14.23;;
239;SDS011;104;53.590;10.004;2022-08-25T01:47:13;22.00;;;14.57;;
239;SDS011;104;53.590;10.004;2022-08-25T01:49:41;20.03;;;14.47;;
239;SDS011;104;53.590;10.004;2022-08-25T01:52:12;20.50;;;14.10;;
239;SDS011;104;53.590;10.004;2022-08-25T01:54:42;22.00;;;14.37;;
239;SDS011;104;53.590;10.004;2022-08-25T01:57:09;22.37;;;14.63;;
239;SDS011;104;53.590;10.004;2022-08-25T01:59:36;21.57;;;14.17;;
239;SDS011;104;53.590;10.004;2022-08-25T02:02:04;26.80;;;15.23;;
239;SDS011;104;53.590;10.004;2022-08-25T02:04:31;19.37;;;14.80;;
239;SDS011;104;53.590;10.004;2022-08-25T02:06:58;22.83;;;15.63;;
239;SDS011;104;53.590;10.004;2022-08-25T02:09:27;24.73;;;14.70;;
239;SDS011;104;53.590;10.004;2022-08-25T02:11:59;24.03;;;15.37;;
239;SDS011;104;53.590;10.004;2022-08-25T02:14:26;25.70;;;15.40;;
239;SDS011;104;53.590;10.004;2022-08-25T02:16:54;24.23;;;16.33;;
239;SDS011;104;53.590;10.004;2022-08-25T02:19:22;20.33;;;15.17;;
239;SDS011;104;53.590;10.004;2022-08-25T02:21:50;22.43;;;15.80;;
239;SDS011;104;53.590;10.004;2022-08-25T02:24:17;22.07;;;15.70;;
239;SDS011;104;53.590;10.004;2022-08-25T02:26:46;22.40;;;16.00;;
239;SDS011;104;53.590;10.004;2022-08-25T02:29:13;25.50;;;16.63;;
239;SDS011;104;53.590;10.004;2022-08-25T02:31:41;30.00;;;16.07;;
239;SDS011;104;53.590;10.004;2022-08-25T02:34:09;22.83;;;15.40;;
239;SDS011;104;53.590;10.004;2022-08-25T02:36:37;25.10;;;16.90;;
239;SDS011;104;53.590;10.004;2022-08-25T02:39:05;20.67;;;15.10;;
239;SDS011;104;53.590;10.004;2022-08-25T02:41:33;21.27;;;15.73;;
239;SDS011;104;53.590;10.004;2022-08-25T02:44:04;28.47;;;16.27;;
239;SDS011;104;53.590;10.004;2022-08-25T02:46:32;26.73;;;16.77;;
239;SDS011;104;53.590;10.004;2022-08-25T02:49:00;22.27;;;16.00;;
239;SDS011;104;53.590;10.004;2022-08-25T02:51:27;26.00;;;16.00;;
239;SDS011;104;53.590;10.004;2022-08-25T02:53:59;26.80;;;16.23;;
239;SDS011;104;53.590;10.004;2022-08-25T02:56:30;24.53;;;16.83;;
239;SDS011;104;53.590;10.004;2022-08-25T02:58:59;25.17;;;16.73;;
239;SDS011;104;53.590;10.004;2022-08-25T03:01:28;21.60;;;15.80;;
239;SDS011;104;53.590;10.004;2022-08-25T03:03:56;23.40;;;16.13;;
239;SDS011;104;53.590;10.004;2022-08-25T03:06:30;24.73;;;15.97;;
239;SDS011;104;53.590;10.004;2022-08-25T03:09:02;26.80;;;16.63;;
239;SDS011;104;53.590;10.004;2022-08-25T03:11:33;24.03;;;15.63;;
239;SDS011;104;53.590;10.004;2022-08-25T03:14:02;24.90;;;17.00;;
239;SDS011;104;53.590;10.004;2022-08-25T03:16:31;22.70;;;17.07;;
239;SDS011;104;53.590;10.004;2022-08-25T03:19:00;23.00;;;16.33;;
239;SDS011;104;53.590;10.004;2022-08-25T03:21:27;29.47;;;17.60;;
239;SDS011;104;53.590;10.004;2022-08-25T03:23:57;23.77;;;17.03;;
239;SDS011;104;53.590;10.004;2022-08-25T03:26:25;24.83;;;16.33;;
239;SDS011;104;53.590;10.004;2022-08-25T03:29:12;24.67;;;15.93;;
239;SDS011;104;53.590;10.004;2022-08-25T03:31:41;26.80;;;16.93;;
239;SDS011;104;53.590;10.004;2022-08-25T03:34:08;30.53;;;17.80;;
239;SDS011;104;53.590;10.004;2022-08-25T03:36:36;24.27;;;17.00;;
239;SDS011;104;53.590;10.004;2022-08-25T03:39:04;22.73;;;16.43;;
239;SDS011;104;53.590;10.004;2022-08-25T03:41:32;26.13;;;17.23;;
239;SDS011;104;53.590;10.004;2022-08-25T03:44:01;25.87;;;16.43;;
239;SDS011;104;53.590;10.004;2022-08-25T03:46:31;24.90;;;16.17;;
239;SDS011;104;53.590;10.004;2022-08-25T03:49:19;26.13;;;16.10;;
239;SDS011;104;53.590;10.004;2022-08-25T03:51:56;24.00;;;16.43;;
239;SDS011;104;53.590;10.004;2022-08-25T03:54:37;28.50;;;16.63;;
239;SDS011;104;53.590;10.004;2022-08-25T03:57:04;30.33;;;17.70;;
239;SDS011;104;53.590;10.004;2022-08-25T04:00:03;27.47;;;16.90;;
239;SDS011;104;53.590;10.004;2022-08-25T04:02:51;31.43;;;18.60;;
239;SDS011;104;53.590;10.004;2022-08-25T04:08:10;23.90;;;16.43;;
239;SDS011;104;53.590;10.004;2022-08-25T04:10:37;24.33;;;16.63;;
239;SDS011;104;53.590;10.004;2022-08-25T04:13:04;24.53;;;17.67;;
239;SDS011;104;53.590;10.004;2022-08-25T04:15:40;24.70;;;16.90;;
239;SDS011;104;53.590;10.004;2022-08-25T04:18:17;24.90;;;17.83;;
239;SDS011;104;53.590;10.004;2022-08-25T04:23:28;24.20;;;16.70;;
239;SDS011;104;53.590;10.004;2022-08-25T04:25:58;25.73;;;17.70;;
239;SDS011;104;53.590;10.004;2022-08-25T04:28:26;26.40;;;18.50;;
239;SDS011;104;53.590;10.004;2022-08-25T04:30:53;27.03;;;17.83;;
239;SDS011;104;53.590;10.004;2022-08-25T04:33:20;26.10;;;17.87;;
239;SDS011;104;53.590;10.004;2022-08-25T04:35:48;25.27;;;16.80;;
239;SDS011;104;53.590;10.004;2022-08-25T04:38:17;26.77;;;16.70;;
239;SDS011;104;53.590;10.004;2022-08-25T04:40:44;24.27;;;17.03;;
239;SDS011;104;53.590;10.004;2022-08-25T04:43:11;28.00;;;17.70;;
239;SDS011;104;53.590;10.004;2022-08-25T04:45:50;26.00;;;17.20;;
239;SDS011;104;53.590;10.004;2022-08-25T04:48:18;28.70;;;17.30;;
239;SDS011;104;53.590;10.004;2022-08-25T04:50:45;38.33;;;18.87;;
239;SDS011;104;53.590;10.004;2022-08-25T04:53:12;27.30;;;18.07;;
239;SDS011;104;53.590;10.004;2022-08-25T04:55:43;29.83;;;18.80;;
239;SDS011;104;53.590;10.004;2022-08-25T04:58:12;28.53;;;18.03;;
239;SDS011;104;53.590;10.004;2022-08-25T05:00:41;33.90;;;17.50;;
239;SDS011;104;53.590;10.004;2022-08-25T05:03:08;29.00;;;18.40;;
239;SDS011;104;53.590;10.004;2022-08-25T05:05:36;27.80;;;17.83;;
239;SDS011;104;53.590;10.004;2022-08-25T05:08:05;26.87;;;18.43;;
239;SDS011;104;53.590;10.004;2022-08-25T05:10:37;31.10;;;19.70;;
239;SDS011;104;53.590;10.004;2022-08-25T05:13:06;26.40;;;17.47;;
239;SDS011;104;53.590;10.004;2022-08-25T05:15:33;26.50;;;17.57;;
239;SDS011;104;53.590;10.004;2022-08-25T05:18:16;30.70;;;18.57;;
239;SDS011;104;53.590;10.004;2022-08-25T05:20:45;35.60;;;17.90;;
239;SDS011;104;53.590;10.004;2022-08-25T05:23:12;29.53;;;17.37;;
239;SDS011;104;53.590;10.004;2022-08-25T05:25:39;28.07;;;17.57;;
239;SDS011;104;53.590;10.004;2022-08-25T05:28:11;27.00;;;17.73;;
239;SDS011;104;53.590;10.004;2022-08-25T05:30:39;29.03;;;17.70;;
239;SDS011;104;53.590;10.004;2022-08-25T05:33:10;30.80;;;18.77;;
239;SDS011;104;53.590;10.004;2022-08-25T05:35:40;29.87;;;17.97;;
239;SDS011;104;53.590;10.004;2022-08-25T05:38:07;27.63;;;18.17;;
239;SDS011;104;53.590;10.004;2022-08-25T05:40:34;27.67;;;17.27;;
239;SDS011;104;53.590;10.004;2022-08-25T05:43:02;25.90;;;16.33;;
239;SDS011;104;53.590;10.004;2022-08-25T05:45:30;21.87;;;16.60;;
239;SDS011;104;53.590;10.004;2022-08-25T05:47:57;20.50;;;15.50;;
239;SDS011;104;53.590;10.004;2022-08-25T05:50:25;22.67;;;15.50;;
239;SDS011;104;53.590;10.004;2022-08-25T05:52:52;21.80;;;15.90;;
239;SDS011;104;53.590;10.004;2022-08-25T05:55:19;27.23;;;15.87;;
239;SDS011;104;53.590;10.004;2022-08-25T05:57:47;21.20;;;15.27;;
239;SDS011;104;53.590;10.004;2022-08-25T06:00:14;21.97;;;15.20;;
239;SDS011;104;53.590;10.004;2022-08-25T06:02:44;20.77;;;14.87;;
239;SDS011;104;53.590;10.004;2022-08-25T06:05:22;23.17;;;15.50;;
239;SDS011;104;53.590;10.004;2022-08-25T06:08:00;21.33;;;14.77;;
239;SDS011;104;53.590;10.004;2022-08-25T06:10:27;20.13;;;14.70;;
239;SDS011;104;53.590;10.004;2022-08-25T06:12:54;20.20;;;13.70;;
239;SDS011;104;53.590;10.004;2022-08-25T06:15:25;22.60;;;15.00;;
239;SDS011;104;53.590;10.004;2022-08-25T06:18:00;21.63;;;15.60;;
239;SDS011;104;53.590;10.004;2022-08-25T06:20:27;25.23;;;16.17;;
239;SDS011;104;53.590;10.004;2022-08-25T06:22:56;20.17;;;14.87;;
239;SDS011;104;53.590;10.004;2022-08-25T06:25:24;23.83;;;15.33;;
239;SDS011;104;53.590;10.004;2022-08-25T06:27:52;21.23;;;14.83;;
239;SDS011;104;53.590;10.004;2022-08-25T06:30:21;23.23;;;15.93;;
239;SDS011;104;53.590;10.004;2022-08-25T06:33:00;21.43;;;15.00;;
239;SDS011;104;53.590;10.004;2022-08-25T06:35:46;27.80;;;16.53;;
239;SDS011;104;53.590;10.004;2022-08-25T06:41:30;21.40;;;15.47;;
239;SDS011;104;53.590;10.004;2022-08-25T06:43:57;23.87;;;15.20;;
239;SDS011;104;53.590;10.004;2022-08-25T06:46:25;22.60;;;15.10;;
239;SDS011;104;53.590;10.004;2022-08-25T06:49:05;24.23;;;16.20;;
239;SDS011;104;53.590;10.004;2022-08-25T06:51:55;22.33;;;14.90;;
239;SDS011;104;53.590;10.004;2022-08-25T07:00:08;21.47;;;14.33;;
239;SDS011;104;53.590;10.004;2022-08-25T07:02:44;19.17;;;14.73;;
239;SDS011;104;53.590;10.004;2022-08-25T07:05:22;25.20;;;14.40;;
239;SDS011;104;53.590;10.004;2022-08-25T07:07:55;19.90;;;14.90;;
239;SDS011;104;53.590;10.004;2022-08-25T07:10:22;22.73;;;13.83;;
239;SDS011;104;53.590;10.004;2022-08-25T07:12:52;19.97;;;14.47;;
239;SDS011;104;53.590;10.004;2022-08-25T07:15:20;23.60;;;14.83;;
239;SDS011;104;53.590;10.004;2022-08-25T07:18:01;21.40;;;14.73;;
239;SDS011;104;53.590;10.004;2022-08-25T07:20:46;22.90;;;15.37;;
239;SDS011;104;53.590;10.004;2022-08-25T07:23:13;21.90;;;14.30;;
239;SDS011;104;53.590;10.004;2022-08-25T07:25:40;22.47;;;15.40;;
239;SDS011;104;53.590;10.004;2022-08-25T07:28:14;23.43;;;13.90;;
239;SDS011;104;53.590;10.004;2022-08-25T07:30:56;23.77;;;14.50;;
239;SDS011;104;53.590;10.004;2022-08-25T07:33:43;22.60;;;13.97;;
239;SDS011;104;53.590;10.004;2022-08-25T07:36:26;26.33;;;14.60;;
239;SDS011;104;53.590;10.004;2022-08-25T07:38:54;19.23;;;14.23;;
239;SDS011;104;53.590;10.004;2022-08-25T07:41:21;18.90;;;14.07;;
239;SDS011;104;53.590;10.004;2022-08-25T07:43:48;24.93;;;14.30;;
239;SDS011;104;53.590;10.004;2022-08-25T07:46:16;23.20;;;16.07;;
239;SDS011;104;53.590;10.004;2022-08-25T07:48:43;20.77;;;14.13;;
239;SDS011;104;53.590;10.004;2022-08-25T07:51:11;34.73;;;19.07;;
239;SDS011;104;53.590;10.004;2022-08-25T07:53:43;19.33;;;12.80;;
239;SDS011;104;53.590;10.004;2022-08-25T07:56:11;24.13;;;14.73;;
239;SDS011;104;53.590;10.004;2022-08-25T07:58:40;21.77;;;13.00;;
239;SDS011;104;53.590;10.004;2022-08-25T08:01:12;18.53;;;13.00;;
239;SDS011;104;53.590;10.004;2022-08-25T08:03:40;20.70;;;12.70;;
239;SDS011;104;53.590;10.004;2022-08-25T08:06:11;23.00;;;12.33;;
239;SDS011;104;53.590;10.004;2022-08-25T08:08:42;25.63;;;11.50;;
239;SDS011;104;53.590;10.004;2022-08-25T08:11:16;17.70;;;11.30;;
239;SDS011;104;53.590;10.004;2022-08-25T08:13:45;22.47;;;12.00;;
239;SDS011;104;53.590;10.004;2022-08-25T08:16:14;25.17;;;12.40;;
239;SDS011;104;53.590;10.004;2022-08-25T08:18:42;21.70;;;12.17;;
239;SDS011;104;53.590;10.004;2022-08-25T08:21:11;22.33;;;12.77;;
239;SDS011;104;53.590;10.004;2022-08-25T08:23:39;23.07;;;12.20;;
239;SDS011;104;53.590;10.004;2022-08-25T08:26:07;28.87;;;13.13;;
239;SDS011;104;53.590;10.004;2022-08-25T08:28:35;23.23;;;12.70;;
239;SDS011;104;53.590;10.004;2022-08-25T08:31:02;18.27;;;11.13;;
239;SDS011;104;53.590;10.004;2022-08-25T08:33:30;24.00;;;12.27;;
239;SDS011;104;53.590;10.004;2022-08-25T08:35:58;38.70;;;12.37;;
239;SDS011;104;53.590;10.004;2022-08-25T08:38:27;35.50;;;13.07;;
239;SDS011;104;53.590;10.004;2022-08-25T08:41:01;36.30;;;11.90;;
239;SDS011;104;53.590;10.004;2022-08-25T08:43:48;31.43;;;12.80;;
239;SDS011;104;53.590;10.004;2022-08-25T08:46:21;45.63;;;12.43;;
239;SDS011;104;53.590;10.004;2022-08-25T08:48:51;37.33;;;12.43;;
239;SDS011;104;53.590;10.004;2022-08-25T08:51:28;26.00;;;11.70;;
239;SDS011;104;53.590;10.004;2022-08-25T08:53:58;43.27;;;13.13;;
239;SDS011;104;53.590;10.004;2022-08-25T08:56:31;28.80;;;12.30;;
239;SDS011;104;53.590;10.004;2022-08-25T08:59:04;27.83;;;11.30;;
239;SDS011;104;53.590;10.004;2022-08-25T09:01:38;24.70;;;11.13;;
239;SDS011;104;53.590;10.004;2022-08-25T09:04:14;27.87;;;11.40;;
239;SDS011;104;53.590;10.004;2022-08-25T09:06:47;18.43;;;11.10;;
239;SDS011;104;53.590;10.004;2022-08-25T09:09:18;23.63;;;10.50;;
239;SDS011;104;53.590;10.004;2022-08-25T09:11:56;24.03;;;11.20;;
239;SDS011;104;53.590;10.004;2022-08-25T09:14:35;17.07;;;10.80;;
239;SDS011;104;53.590;10.004;2022-08-25T09:17:12;24.63;;;10.87;;
239;SDS011;104;53.590;10.004;2022-08-25T09:19:53;22.63;;;11.10;;
239;SDS011;104;53.590;10.004;2022-08-25T09:22:40;16.83;;;10.23;;
239;SDS011;104;53.590;10.004;2022-08-25T09:25:17;20.50;;;11.07;;
239;SDS011;104;53.590;10.004;2022-08-25T09:27:50;19.23;;;11.37;;
239;SDS011;104;53.590;10.004;2022-08-25T09:30:29;21.83;;;10.57;;
239;SDS011;104;53.590;10.004;2022-08-25T09:33:05;17.30;;;10.40;;
239;SDS011;104;53.590;10.004;2022-08-25T09:35:35;15.27;;;10.40;;
239;SDS011;104;53.590;10.004;2022-08-25T09:38:07;15.33;;;10.63;;
239;SDS011;104;53.590;10.004;2022-08-25T09:40:36;22.10;;;10.43;;
239;SDS011;104;53.590;10.004;2022-08-25T09:43:17;14.13;;;10.20;;
239;SDS011;104;53.590;10.004;2022-08-25T09:45:49;17.17;;;12.50;;
239;SDS011;104;53.590;10.004;2022-08-25T09:48:24;17.80;;;10.53;;
239;SDS011;104;53.590;10.004;2022-08-25T09:50:55;25.47;;;11.87;;
239;SDS011;104;53.590;10.004;2022-08-25T09:53:25;18.83;;;10.47;;
239;SDS011;104;53.590;10.004;2022-08-25T09:55:55;23.43;;;10.43;;
239;SDS011;104;53.590;10.004;2022-08-25T09:58:28;28.33;;;10.77;;
239;SDS011;104;53.590;10.004;2022-08-25T10:01:02;20.53;;;10.60;;
239;SDS011;104;53.590;10.004;2022-08-25T10:03:52;32.47;;;11.00;;
239;SDS011;104;53.590;10.004;2022-08-25T10:06:24;21.20;;;11.37;;
239;SDS011;104;53.590;10.004;2022-08-25T10:08:55;27.80;;;11.13;;
239;SDS011;104;53.590;10.004;2022-08-25T10:11:38;26.30;;;11.57;;
239;SDS011;104;53.590;10.004;2022-08-25T10:17:09;21.30;;;11.20;;
239;SDS011;104;53.590;10.004;2022-08-25T10:19:49;25.20;;;10.50;;
239;SDS011;104;53.590;10.004;2022-08-25T10:22:20;17.17;;;10.80;;
239;SDS011;104;53.590;10.004;2022-08-25T10:24:51;27.10;;;12.00;;
239;SDS011;104;53.590;10.004;2022-08-25T10:27:21;24.23;;;11.03;;
239;SDS011;104;53.590;10.004;2022-08-25T10:29:58;17.43;;;10.43;;
239;SDS011;104;53.590;10.004;2022-08-25T10:32:35;25.40;;;10.30;;
239;SDS011;104;53.590;10.004;2022-08-25T10:35:19;18.77;;;11.60;;
239;SDS011;104;53.590;10.004;2022-08-25T10:37:53;20.57;;;11.17;;
239;SDS011;104;53.590;10.004;2022-08-25T10:40:29;15.03;;;11.40;;
239;SDS011;104;53.590;10.004;2022-08-25T10:43:04;25.03;;;12.67;;
239;SDS011;104;53.590;10.004;2022-08-25T10:45:40;21.47;;;11.13;;
239;SDS011;104;53.590;10.004;2022-08-25T10:48:27;22.07;;;11.10;;
239;SDS011;104;53.590;10.004;2022-08-25T10:51:11;20.10;;;11.27;;
239;SDS011;104;53.590;10.004;2022-08-25T10:53:54;17.57;;;11.93;;
239;SDS011;104;53.590;10.004;2022-08-25T10:56:28;16.77;;;11.53;;
239;SDS011;104;53.590;10.004;2022-08-25T10:59:12;16.83;;;11.03;;
239;SDS011;104;53.590;10.004;2022-08-25T11:01:55;18.57;;;11.27;;
239;SDS011;104;53.590;10.004;2022-08-25T11:04:39;20.60;;;11.40;;
239;SDS011;104;53.590;10.004;2022-08-25T11:07:10;28.93;;;13.57;;
239;SDS011;104;53.590;10.004;2022-08-25T11:09:43;23.87;;;12.00;;
239;SDS011;104;53.590;10.004;2022-08-25T11:12:15;22.63;;;11.07;;
239;SDS011;104;53.590;10.004;2022-08-25T11:14:48;15.97;;;11.00;;
239;SDS011;104;53.590;10.004;2022-08-25T11:17:21;25.17;;;10.93;;
239;SDS011;104;53.590;10.004;2022-08-25T11:19:54;19.00;;;10.50;;
239;SDS011;104;53.590;10.004;2022-08-25T11:22:27;19.37;;;10.50;;
239;SDS011;104;53.590;10.004;2022-08-25T11:25:00;17.20;;;10.63;;
239;SDS011;104;53.590;10.004;2022-08-25T11:27:36;16.50;;;9.90;;
239;SDS011;104;53.590;10.004;2022-08-25T11:30:09;20.63;;;11.03;;
239;SDS011;104;53.590;10.004;2022-08-25T11:32:38;25.83;;;11.30;;
239;SDS011;104;53.590;10.004;2022-08-25T11:35:11;25.20;;;10.30;;
239;SDS011;104;53.590;10.004;2022-08-25T11:37:42;24.57;;;10.70;;
239;SDS011;104;53.590;10.004;2022-08-25T11:40:25;22.70;;;11.00;;
239;SDS011;104;53.590;10.004;2022-08-25T11:43:07;30.63;;;11.10;;
239;SDS011;104;53.590;10.004;2022-08-25T11:45:53;18.30;;;10.57;;
239;SDS011;104;53.590;10.004;2022-08-25T11:48:35;27.27;;;11.27;;
239;SDS011;104;53.590;10.004;2022-08-25T11:51:09;29.03;;;10.90;;
239;SDS011;104;53.590;10.004;2022-08-25T11:54:03;28.33;;;10.90;;
239;SDS011;104;53.590;10.004;2022-08-25T11:56:49;23.40;;;10.27;;
239;SDS011;104;53.590;10.004;2022-08-25T12:02:28;39.90;;;11.20;;
239;SDS011;104;53.590;10.004;2022-08-25T12:04:58;28.88;;;10.20;;
239;SDS011;104;53.590;10.004;2022-08-25T12:07:27;55.00;;;11.43;;
239;SDS011;104;53.590;10.004;2022-08-25T12:10:13;27.53;;;10.90;;
239;SDS011;104;53.590;10.004;2022-08-25T12:12:55;28.88;;;10.10;;
239;SDS011;104;53.590;10.004;2022-08-25T12:15:53;28.80;;;10.05;;
239;SDS011;104;53.590;10.004;2022-08-25T12:18:39;26.20;;;9.38;;
239;SDS011;104;53.590;10.004;2022-08-25T12:24:07;25.95;;;9.98;;
239;SDS011;104;53.590;10.004;2022-08-25T12:26:41;34.42;;;10.50;;
239;SDS011;104;53.590;10.004;2022-08-25T12:29:13;28.80;;;9.93;;
239;SDS011;104;53.590;10.004;2022-08-25T12:31:49;39.70;;;10.65;;
239;SDS011;104;53.590;10.004;2022-08-25T12:34:39;27.60;;;9.80;;
239;SDS011;104;53.590;10.004;2022-08-25T12:37:20;24.73;;;9.90;;
239;SDS011;104;53.590;10.004;2022-08-25T12:39:56;31.92;;;10.40;;
239;SDS011;104;53.590;10.004;2022-08-25T12:42:30;40.83;;;10.15;;
239;SDS011;104;53.590;10.004;2022-08-25T12:45:10;38.40;;;11.65;;
239;SDS011;104;53.590;10.004;2022-08-25T12:47:57;26.48;;;10.07;;
239;SDS011;104;53.590;10.004;2022-08-25T12:51:01;34.97;;;9.93;;
239;SDS011;104;53.590;10.004;2022-08-25T12:53:34;30.93;;;10.50;;
239;SDS011;104;53.590;10.004;2022-08-25T12:56:06;28.10;;;10.33;;
239;SDS011;104;53.590;10.004;2022-08-25T12:58:46;42.13;;;10.67;;
239;SDS011;104;53.590;10.004;2022-08-25T13:01:18;39.00;;;11.07;;
239;SDS011;104;53.590;10.004;2022-08-25T13:04:06;36.42;;;10.85;;
239;SDS011;104;53.590;10.004;2022-08-25T13:06:59;40.17;;;10.60;;
239;SDS011;104;53.590;10.004;2022-08-25T13:09:48;38.77;;;10.87;;
239;SDS011;104;53.590;10.004;2022-08-25T13:12:32;29.03;;;10.50;;
239;SDS011;104;53.590;10.004;2022-08-25T13:15:05;24.57;;;10.20;;
239;SDS011;104;53.590;10.004;2022-08-25T13:17:38;38.50;;;10.67;;
239;SDS011;104;53.590;10.004;2022-08-25T13:20:15;26.17;;;10.50;;
239;SDS011;104;53.590;10.004;2022-08-25T13:22:48;47.80;;;11.03;;
239;SDS011;104;53.590;10.004;2022-08-25T13:25:18;33.50;;;11.07;;
239;SDS011;104;53.590;10.004;2022-08-25T13:27:49;33.07;;;10.60;;
239;SDS011;104;53.590;10.004;2022-08-25T13:30:22;25.50;;;10.20;;
239;SDS011;104;53.590;10.004;2022-08-25T13:32:52;26.20;;;9.80;;
239;SDS011;104;53.590;10.004;2022-08-25T13:35:21;23.23;;;10.07;;
239;SDS011;104;53.590;10.004;2022-08-25T13:37:50;29.97;;;9.90;;
239;SDS011;104;53.590;10.004;2022-08-25T13:40:21;32.67;;;10.80;;
239;SDS011;104;53.590;10.004;2022-08-25T13:42:52;20.47;;;10.10;;
239;SDS011;104;53.590;10.004;2022-08-25T13:45:21;27.30;;;11.00;;
239;SDS011;104;53.590;10.004;2022-08-25T13:47:50;34.83;;;10.43;;
239;SDS011;104;53.590;10.004;2022-08-25T13:50:19;22.37;;;10.30;;
239;SDS011;104;53.590;10.004;2022-08-25T13:52:54;36.60;;;10.45;;
239;SDS011;104;53.590;10.004;2022-08-25T13:55:32;31.10;;;10.47;;
239;SDS011;104;53.590;10.004;2022-08-25T13:58:12;44.43;;;11.87;;
239;SDS011;104;53.590;10.004;2022-08-25T14:00:45;30.75;;;10.30;;
239;SDS011;104;53.590;10.004;2022-08-25T14:03:28;35.53;;;10.60;;
239;SDS011;104;53.590;10.004;2022-08-25T14:06:04;29.33;;;10.52;;
239;SDS011;104;53.590;10.004;2022-08-25T14:08:34;27.60;;;10.45;;
239;SDS011;104;53.590;10.004;2022-08-25T14:11:07;34.30;;;10.10;;
239;SDS011;104;53.590;10.004;2022-08-25T14:13:37;29.02;;;10.20;;
239;SDS011;104;53.590;10.004;2022-08-25T14:16:07;31.75;;;9.80;;
239;SDS011;104;53.590;10.004;2022-08-25T14:18:36;37.33;;;10.63;;
239;SDS011;104;53.590;10.004;2022-08-25T14:21:08;23.73;;;9.15;;
239;SDS011;104;53.590;10.004;2022-08-25T14:23:36;26.70;;;9.50;;
239;SDS011;104;53.590;10.004;2022-08-25T14:26:04;22.00;;;9.57;;
239;SDS011;104;53.590;10.004;2022-08-25T14:28:31;21.73;;;10.10;;
239;SDS011;104;53.590;10.004;2022-08-25T14:31:00;23.58;;;9.77;;
239;SDS011;104;53.590;10.004;2022-08-25T14:33:33;18.50;;;9.77;;
239;SDS011;104;53.590;10.004;2022-08-25T14:36:03;32.40;;;10.95;;
239;SDS011;104;53.590;10.004;2022-08-25T14:38:31;25.02;;;10.85;;
239;SDS011;104;53.590;10.004;2022-08-25T14:40:58;25.40;;;11.35;;
239;SDS011;104;53.590;10.004;2022-08-25T14:43:25;15.20;;;10.20;;
239;SDS011;104;53.590;10.004;2022-08-25T14:45:53;25.42;;;10.55;;
239;SDS011;104;53.590;10.004;2022-08-25T14:48:24;32.55;;;10.80;;
239;SDS011;104;53.590;10.004;2022-08-25T14:50:54;29.00;;;10.75;;
239;SDS011;104;53.590;10.004;2022-08-25T14:53:23;24.15;;;10.60;;
239;SDS011;104;53.590;10.004;2022-08-25T14:55:51;21.63;;;10.68;;
239;SDS011;104;53.590;10.004;2022-08-25T14:58:19;19.92;;;10.52;;
239;SDS011;104;53.590;10.004;2022-08-25T15:00:47;28.55;;;10.73;;
239;SDS011;104;53.590;10.004;2022-08-25T15:03:16;23.65;;;10.82;;
239;SDS011;104;53.590;10.004;2022-08-25T15:05:52;24.77;;;12.00;;
239;SDS011;104;53.590;10.004;2022-08-25T15:08:19;28.33;;;11.20;;
239;SDS011;104;53.590;10.004;2022-08-25T15:11:03;25.87;;;13.13;;
239;SDS011;104;53.590;10.004;2022-08-25T15:13:30;28.83;;;12.50;;
239;SDS011;104;53.590;10.004;2022-08-25T15:15:57;28.30;;;11.63;;
239;SDS011;104;53.590;10.004;2022-08-25T15:18:25;31.53;;;12.20;;
239;SDS011;104;53.590;10.004;2022-08-25T15:20:53;32.30;;;11.63;;
239;SDS011;104;53.590;10.004;2022-08-25T15:23:21;26.70;;;10.80;;
239;SDS011;104;53.590;10.004;2022-08-25T15:25:48;26.83;;;10.10;;
239;SDS011;104;53.590;10.004;2022-08-25T15:28:16;25.20;;;10.37;;
239;SDS011;104;53.590;10.004;2022-08-25T15:30:43;20.13;;;11.00;;
239;SDS011;104;53.590;10.004;2022-08-25T15:33:10;29.97;;;10.40;;
239;SDS011;104;53.590;10.004;2022-08-25T15:35:37;32.23;;;12.03;;
239;SDS011;104;53.590;10.004;2022-08-25T15:38:06;40.33;;;12.00;;
239;SDS011;104;53.590;10.004;2022-08-25T15:40:34;32.83;;;10.50;;
239;SDS011;104;53.590;10.004;2022-08-25T15:43:03;22.67;;;10.97;;
239;SDS011;104;53.590;10.004;2022-08-25T15:45:30;35.80;;;12.37;;
239;SDS011;104;53.590;10.004;2022-08-25T15:47:59;24.43;;;11.20;;
239;SDS011;104;53.590;10.004;2022-08-25T15:50:27;32.93;;;10.83;;
239;SDS011;104;53.590;10.004;2022-08-25T15:52:54;28.73;;;11.17;;
239;SDS011;104;53.590;10.004;2022-08-25T15:55:22;34.83;;;11.10;;
239;SDS011;104;53.590;10.004;2022-08-25T15:57:49;28.33;;;11.00;;